createdAt,value
2023-05-15T00:00:48.302Z,500.00
2023-05-15T00:01:48.281Z,446.00
2023-05-15T00:02:48.319Z,429.00
2023-05-15T00:03:48.283Z,425.00
2023-05-15T00:04:48.257Z,441.00
2023-05-15T00:05:48.188Z,460.00
2023-05-15T00:06:48.160Z,475.00
2023-05-15T00:07:48.130Z,493.00
2023-05-15T00:08:48.117Z,500.00
2023-05-15T00:09:48.113Z,501.00
2023-05-15T00:11:01.065Z,499.00
2023-05-15T00:11:48.110Z,499.00
2023-05-15T00:12:48.048Z,491.00
2023-05-15T00:13:48.027Z,468.00
2023-05-15T00:14:48.019Z,456.00
2023-05-15T00:15:48.018Z,448.00
2023-05-15T00:16:47.957Z,482.00
2023-05-15T00:17:48.019Z,501.00
2023-05-15T00:18:47.963Z,502.00
2023-05-15T00:19:47.889Z,502.00
2023-05-15T00:20:47.866Z,506.00
2023-05-15T00:21:47.858Z,508.00
2023-05-15T00:22:47.817Z,505.00
2023-05-15T00:23:47.795Z,504.00
2023-05-15T00:24:47.774Z,500.00
2023-05-15T00:25:47.752Z,500.00
2023-05-15T00:26:47.717Z,500.00
2023-05-15T00:27:47.718Z,500.00
2023-05-15T00:28:47.666Z,503.00
2023-05-15T00:29:47.648Z,503.00
2023-05-15T00:30:47.637Z,500.00
2023-05-15T00:31:47.651Z,500.00
2023-05-15T00:32:47.600Z,505.00
2023-05-15T00:33:47.562Z,502.00
2023-05-15T00:34:47.526Z,509.00
2023-05-15T00:35:47.527Z,504.00
2023-05-15T00:36:47.494Z,501.00
2023-05-15T00:37:47.451Z,500.00
2023-05-15T00:38:47.450Z,507.00
2023-05-15T00:39:47.476Z,500.00
2023-05-15T00:40:47.508Z,507.00
2023-05-15T00:41:47.529Z,501.00
2023-05-15T00:42:47.548Z,508.00
2023-05-15T00:43:47.699Z,507.00
2023-05-15T00:44:47.608Z,504.00
2023-05-15T00:45:47.632Z,504.00
2023-05-15T00:46:47.699Z,504.00
2023-05-15T00:47:47.750Z,502.00
2023-05-15T00:48:47.745Z,508.00
2023-05-15T00:49:47.740Z,508.00
2023-05-15T00:50:47.775Z,500.00
2023-05-15T00:51:47.802Z,504.00
2023-05-15T00:52:47.829Z,504.00
2023-05-15T00:53:47.895Z,505.00
2023-05-15T00:54:47.876Z,504.00
2023-05-15T00:55:47.905Z,506.00
2023-05-15T00:56:47.940Z,507.00
2023-05-15T00:57:47.966Z,504.00
2023-05-15T00:58:47.990Z,505.00
2023-05-15T00:59:48.043Z,503.00
2023-05-15T01:00:48.069Z,502.00
2023-05-15T01:01:48.080Z,505.00
2023-05-15T01:02:48.225Z,505.00
2023-05-15T01:03:48.187Z,502.00
2023-05-15T01:04:48.165Z,505.00
2023-05-15T01:05:48.179Z,500.00
2023-05-15T01:06:48.205Z,502.00
2023-05-15T01:07:48.239Z,502.00
2023-05-15T01:08:48.254Z,502.00
2023-05-15T01:09:48.281Z,502.00
2023-05-15T01:10:48.300Z,508.00
2023-05-15T01:11:48.342Z,504.00
2023-05-15T01:12:48.356Z,505.00
2023-05-15T01:13:48.381Z,507.00
2023-05-15T01:14:48.406Z,510.00
2023-05-15T01:15:48.452Z,500.00
2023-05-15T01:16:48.454Z,503.00
2023-05-15T01:17:48.495Z,504.00
2023-05-15T01:18:48.579Z,507.00
2023-05-15T01:19:48.604Z,506.00
2023-05-15T01:20:48.551Z,509.00
2023-05-15T01:21:48.575Z,505.00
2023-05-15T01:22:48.606Z,504.00
2023-05-15T01:23:48.615Z,509.00
2023-05-15T01:24:48.652Z,506.00
2023-05-15T01:25:48.720Z,510.00
2023-05-15T01:26:48.716Z,504.00
2023-05-15T01:27:48.743Z,511.00
2023-05-15T01:28:48.771Z,508.00
2023-05-15T01:29:48.791Z,509.00
2023-05-15T01:30:48.824Z,505.00
2023-05-15T01:31:48.894Z,509.00
2023-05-15T01:32:48.938Z,504.00
2023-05-15T01:33:48.900Z,503.00
2023-05-15T01:34:48.924Z,503.00
2023-05-15T01:35:48.956Z,512.00
2023-05-15T01:36:48.974Z,506.00
2023-05-15T01:37:49.009Z,503.00
2023-05-15T01:38:49.041Z,505.00
2023-05-15T01:39:49.070Z,510.00
2023-05-15T01:40:49.105Z,509.00
2023-05-15T01:41:49.125Z,508.00
2023-05-15T01:42:49.156Z,502.00
2023-05-15T01:43:49.198Z,506.00
2023-05-15T01:44:49.210Z,511.00
2023-05-15T01:45:49.238Z,504.00
2023-05-15T01:46:49.391Z,503.00
2023-05-15T01:47:49.393Z,501.00
2023-05-15T01:48:49.314Z,506.00
2023-05-15T01:49:49.329Z,507.00
2023-05-15T01:50:49.365Z,504.00
2023-05-15T01:51:49.374Z,509.00
2023-05-15T01:52:49.391Z,507.00
2023-05-15T01:53:49.428Z,507.00
2023-05-15T01:54:49.455Z,508.00
2023-05-15T01:55:49.484Z,509.00
2023-05-15T01:56:49.509Z,511.00
2023-05-15T01:57:49.531Z,506.00
2023-05-15T01:58:49.561Z,505.00
2023-05-15T01:59:49.590Z,507.00
2023-05-15T02:00:49.602Z,501.00
2023-05-15T02:01:49.692Z,504.00
2023-05-15T02:02:49.775Z,506.00
2023-05-15T02:03:49.784Z,502.00
2023-05-15T02:04:49.727Z,505.00
2023-05-15T02:05:49.764Z,510.00
2023-05-15T02:06:49.777Z,506.00
2023-05-15T02:07:49.819Z,501.00
2023-05-15T02:08:49.856Z,506.00
2023-05-15T02:09:49.884Z,504.00
2023-05-15T02:10:49.913Z,509.00
2023-05-15T02:11:49.956Z,509.00
2023-05-15T02:12:49.975Z,502.00
2023-05-15T02:13:49.999Z,504.00
2023-05-15T02:14:50.045Z,510.00
2023-05-15T02:15:50.112Z,507.00
2023-05-15T02:16:50.145Z,506.00
2023-05-15T02:17:50.165Z,505.00
2023-05-15T02:18:50.160Z,503.00
2023-05-15T02:19:50.206Z,507.00
2023-05-15T02:20:50.228Z,505.00
2023-05-15T02:21:50.269Z,507.00
2023-05-15T02:22:50.261Z,503.00
2023-05-15T02:23:50.303Z,506.00
2023-05-15T02:24:50.353Z,505.00
2023-05-15T02:25:50.412Z,508.00
2023-05-15T02:26:50.404Z,503.00
2023-05-15T02:27:50.444Z,510.00
2023-05-15T02:28:50.467Z,507.00
2023-05-15T02:29:50.558Z,508.00
2023-05-15T02:30:50.542Z,501.00
2023-05-15T02:31:50.668Z,506.00
2023-05-15T02:32:50.672Z,505.00
2023-05-15T02:33:50.640Z,509.00
2023-05-15T02:34:50.668Z,508.00
2023-05-15T02:35:50.727Z,505.00
2023-05-15T02:36:50.739Z,507.00
2023-05-15T02:37:50.777Z,507.00
2023-05-15T02:38:50.842Z,505.00
2023-05-15T02:39:50.829Z,506.00
2023-05-15T02:40:50.879Z,502.00
2023-05-15T02:41:50.891Z,504.00
2023-05-15T02:42:50.953Z,509.00
2023-05-15T02:43:50.956Z,503.00
2023-05-15T02:44:50.970Z,508.00
2023-05-15T02:45:51.171Z,506.00
2023-05-15T02:46:51.056Z,509.00
2023-05-15T02:47:51.201Z,508.00
2023-05-15T02:48:51.110Z,504.00
2023-05-15T02:49:51.137Z,511.00
2023-05-15T02:50:51.174Z,508.00
2023-05-15T02:51:51.239Z,511.00
2023-05-15T02:52:51.242Z,510.00
2023-05-15T02:53:51.275Z,509.00
2023-05-15T02:54:51.292Z,505.00
2023-05-15T02:55:51.351Z,511.00
2023-05-15T02:56:51.377Z,510.00
2023-05-15T02:57:51.402Z,513.00
2023-05-15T02:58:51.439Z,510.00
2023-05-15T02:59:51.457Z,510.00
2023-05-15T03:00:51.526Z,513.00
2023-05-15T03:01:51.534Z,511.00
2023-05-15T03:02:51.605Z,510.00
2023-05-15T03:03:51.610Z,508.00
2023-05-15T03:04:51.615Z,510.00
2023-05-15T03:05:51.637Z,515.00
2023-05-15T03:06:52.071Z,507.00
2023-05-15T03:07:52.102Z,513.00
2023-05-15T03:08:52.070Z,509.00
2023-05-15T03:09:52.061Z,508.00
2023-05-15T03:10:52.440Z,509.00
2023-05-15T03:11:52.069Z,512.00
2023-05-15T03:12:52.066Z,503.00
2023-05-15T03:13:52.078Z,507.00
2023-05-15T03:14:52.066Z,503.00
2023-05-15T03:15:52.072Z,510.00
2023-05-15T03:16:52.142Z,505.00
2023-05-15T03:17:52.165Z,509.00
2023-05-15T03:18:52.115Z,509.00
2023-05-15T03:19:52.069Z,512.00
2023-05-15T03:20:52.106Z,510.00
2023-05-15T03:21:52.138Z,509.00
2023-05-15T03:22:52.162Z,508.00
2023-05-15T03:23:52.210Z,508.00
2023-05-15T03:24:52.224Z,505.00
2023-05-15T03:25:52.261Z,503.00
2023-05-15T03:26:52.297Z,506.00
2023-05-15T03:27:52.318Z,504.00
2023-05-15T03:28:52.368Z,506.00
2023-05-15T03:29:52.480Z,510.00
2023-05-15T03:30:52.432Z,506.00
2023-05-15T03:31:52.642Z,513.00
2023-05-15T03:32:52.591Z,506.00
2023-05-15T03:33:52.529Z,508.00
2023-05-15T03:34:52.568Z,511.00
2023-05-15T03:35:52.588Z,513.00
2023-05-15T03:36:52.635Z,507.00
2023-05-15T03:37:52.657Z,507.00
2023-05-15T03:38:53.030Z,505.00
2023-05-15T03:39:53.101Z,508.00
2023-05-15T03:40:53.083Z,512.00
2023-05-15T03:41:53.076Z,507.00
2023-05-15T03:42:53.068Z,510.00
2023-05-15T03:43:53.072Z,510.00
2023-05-15T03:44:53.074Z,508.00
2023-05-15T03:45:53.087Z,508.00
2023-05-15T03:46:53.157Z,510.00
2023-05-15T03:47:53.166Z,509.00
2023-05-15T03:48:53.102Z,508.00
2023-05-15T03:49:53.093Z,510.00
2023-05-15T03:50:53.097Z,507.00
2023-05-15T03:51:53.099Z,509.00
2023-05-15T03:52:53.126Z,508.00
2023-05-15T03:53:53.158Z,508.00
2023-05-15T03:54:53.206Z,510.00
2023-05-15T03:55:53.252Z,505.00
2023-05-15T03:56:53.260Z,506.00
2023-05-15T03:57:53.299Z,507.00
2023-05-15T03:58:53.319Z,507.00
2023-05-15T03:59:53.346Z,507.00
2023-05-15T04:00:53.387Z,511.00
2023-05-15T04:02:04.197Z,514.00
2023-05-15T04:02:53.432Z,514.00
2023-05-15T04:03:53.374Z,515.00
2023-05-15T04:04:53.349Z,515.00
2023-05-15T04:05:53.320Z,511.00
2023-05-15T04:06:53.293Z,511.00
2023-05-15T04:07:53.289Z,507.00
2023-05-15T04:08:53.248Z,511.00
2023-05-15T04:09:53.224Z,509.00
2023-05-15T04:10:53.199Z,509.00
2023-05-15T04:11:53.229Z,510.00
2023-05-15T04:12:53.157Z,504.00
2023-05-15T04:13:53.155Z,507.00
2023-05-15T04:14:53.120Z,508.00
2023-05-15T04:15:53.187Z,510.00
2023-05-15T04:16:53.134Z,507.00
2023-05-15T04:17:53.162Z,509.00
2023-05-15T04:18:53.136Z,504.00
2023-05-15T04:19:53.121Z,508.00
2023-05-15T04:20:53.112Z,508.00
2023-05-15T04:21:53.161Z,506.00
2023-05-15T04:22:53.101Z,509.00
2023-05-15T04:23:53.120Z,504.00
2023-05-15T04:24:53.107Z,508.00
2023-05-15T04:25:53.133Z,513.00
2023-05-15T04:26:53.149Z,506.00
2023-05-15T04:27:53.137Z,508.00
2023-05-15T04:29:03.502Z,503.00
2023-05-15T04:29:53.120Z,504.00
2023-05-15T04:30:53.111Z,506.00
2023-05-15T04:31:53.187Z,506.00
2023-05-15T04:32:53.162Z,508.00
2023-05-15T04:33:53.118Z,509.00
2023-05-15T04:34:53.122Z,510.00
2023-05-15T04:35:53.064Z,508.00
2023-05-15T04:36:52.679Z,512.00
2023-05-15T04:37:52.643Z,508.00
2023-05-15T04:38:52.623Z,511.00
2023-05-15T04:39:52.599Z,507.00
2023-05-15T04:40:52.581Z,507.00
2023-05-15T04:41:52.553Z,511.00
2023-05-15T04:42:52.530Z,511.00
2023-05-15T04:43:52.532Z,506.00
2023-05-15T04:44:52.502Z,502.00
2023-05-15T04:45:52.495Z,509.00
2023-05-15T04:46:52.453Z,512.00
2023-05-15T04:47:52.446Z,509.00
2023-05-15T04:48:52.405Z,504.00
2023-05-15T04:49:52.400Z,511.00
2023-05-15T04:50:52.464Z,506.00
2023-05-15T04:51:52.464Z,506.00
2023-05-15T04:52:52.517Z,509.00
2023-05-15T04:53:52.521Z,508.00
2023-05-15T04:54:52.565Z,507.00
2023-05-15T04:55:52.610Z,507.00
2023-05-15T04:56:52.659Z,512.00
2023-05-15T04:57:52.682Z,507.00
2023-05-15T04:58:53.073Z,506.00
2023-05-15T04:59:53.184Z,509.00
2023-05-15T05:00:53.114Z,510.00
2023-05-15T05:01:53.215Z,508.00
2023-05-15T05:02:53.145Z,508.00
2023-05-15T05:03:53.215Z,509.00
2023-05-15T05:04:53.142Z,512.00
2023-05-15T05:05:53.127Z,504.00
2023-05-15T05:06:53.185Z,509.00
2023-05-15T05:07:53.127Z,506.00
2023-05-15T05:08:53.136Z,511.00
2023-05-15T05:09:53.142Z,510.00
2023-05-15T05:10:53.186Z,509.00
2023-05-15T05:11:53.172Z,512.00
2023-05-15T05:12:53.205Z,509.00
2023-05-15T05:13:53.262Z,511.00
2023-05-15T05:14:53.291Z,507.00
2023-05-15T05:15:53.430Z,506.00
2023-05-15T05:16:53.440Z,510.00
2023-05-15T05:17:53.499Z,503.00
2023-05-15T05:18:53.493Z,509.00
2023-05-15T05:19:53.479Z,506.00
2023-05-15T05:20:53.528Z,513.00
2023-05-15T05:21:53.701Z,513.00
2023-05-15T05:22:53.603Z,515.00
2023-05-15T05:23:53.642Z,525.00
2023-05-15T05:24:53.689Z,591.00
2023-05-15T05:25:53.720Z,574.00
2023-05-15T05:26:54.214Z,484.00
2023-05-15T05:27:53.737Z,500.00
2023-05-15T05:28:54.195Z,500.00
2023-05-15T05:29:54.635Z,500.00
2023-05-15T05:30:53.823Z,510.00
2023-05-15T05:31:54.243Z,510.00
2023-05-15T05:32:54.014Z,506.00
2023-05-15T05:33:54.069Z,501.00
2023-05-15T05:34:53.969Z,506.00
2023-05-15T05:35:54.027Z,501.00
2023-05-15T05:36:54.212Z,506.00
2023-05-15T05:37:54.051Z,500.00
2023-05-15T05:38:54.197Z,500.00
2023-05-15T05:39:54.072Z,504.00
2023-05-15T05:40:54.058Z,501.00
2023-05-15T05:41:54.254Z,512.00
2023-05-15T05:42:54.061Z,517.00
2023-05-15T05:43:54.091Z,510.00
2023-05-15T05:44:54.104Z,513.00
2023-05-15T05:45:55.135Z,517.00
2023-05-15T05:46:54.312Z,530.00
2023-05-15T05:47:54.318Z,539.00
2023-05-15T05:48:55.219Z,563.00
2023-05-15T05:49:55.363Z,570.00
2023-05-15T05:50:54.321Z,546.00
2023-05-15T05:51:55.713Z,553.00
2023-05-15T05:52:54.556Z,563.00
2023-05-15T05:53:54.603Z,554.00
2023-05-15T05:54:54.651Z,571.00
2023-05-15T05:55:54.752Z,594.00
2023-05-15T05:56:55.205Z,610.00
2023-05-15T05:57:55.206Z,619.00
2023-05-15T05:59:02.378Z,589.00
2023-05-15T05:59:54.866Z,538.00
2023-05-15T06:01:59.245Z,589.00
2023-05-15T06:03:10.947Z,592.00
2023-05-15T06:03:58.643Z,593.00
2023-05-15T06:04:56.192Z,596.00
2023-05-15T06:06:02.572Z,618.00
2023-05-15T06:06:55.212Z,596.00
2023-05-15T06:07:58.107Z,626.00
2023-05-15T06:08:56.472Z,599.00
2023-05-15T06:09:54.925Z,599.00
2023-05-15T06:10:54.873Z,633.00
2023-05-15T06:11:55.667Z,731.00
2023-05-15T06:12:54.889Z,951.00
2023-05-15T06:13:54.840Z,1256.00
2023-05-15T06:14:55.116Z,1325.00
2023-05-15T06:15:55.407Z,1310.00
2023-05-15T06:16:54.838Z,1369.00
2023-05-15T06:17:54.815Z,1448.00
2023-05-15T06:18:58.236Z,1479.00
2023-05-15T06:19:54.728Z,1481.00
2023-05-15T06:20:54.714Z,1481.00
2023-05-15T06:21:54.710Z,1485.00
2023-05-15T06:22:57.937Z,1508.00
2023-05-15T06:23:54.680Z,1484.00
2023-05-15T06:24:54.752Z,1499.00
2023-05-15T06:25:54.639Z,1526.00
2023-05-15T06:26:54.706Z,1569.00
2023-05-15T06:27:57.754Z,1669.00
2023-05-15T06:28:54.519Z,1487.00
2023-05-15T06:29:54.505Z,1517.00
2023-05-15T06:30:54.517Z,1567.00
2023-05-15T06:31:54.724Z,1658.00
2023-05-15T06:32:54.758Z,1793.00
2023-05-15T06:33:54.367Z,1848.00
2023-05-15T06:34:54.371Z,1869.00
2023-05-15T06:35:54.306Z,1885.00
2023-05-15T06:36:54.786Z,1876.00
2023-05-15T06:37:54.970Z,1911.00
2023-05-15T06:38:54.368Z,2004.00
2023-05-15T06:39:54.365Z,1994.00
2023-05-15T06:40:54.718Z,2001.00
2023-05-15T06:42:02.111Z,2011.00
2023-05-15T06:42:54.464Z,2014.00
2023-05-15T06:43:57.918Z,2021.00
2023-05-15T06:44:54.265Z,2015.00
2023-05-15T06:45:54.224Z,2025.00
2023-05-15T06:46:54.280Z,2047.00
2023-05-15T06:47:54.170Z,2065.00
2023-05-15T06:48:54.213Z,2159.00
2023-05-15T06:49:55.097Z,2129.00
2023-05-15T06:50:54.076Z,2126.00
2023-05-15T06:51:57.423Z,2147.00
2023-05-15T06:52:53.966Z,2149.00
2023-05-15T06:53:54.222Z,2153.00
2023-05-15T06:54:54.612Z,2165.00
2023-05-15T06:55:53.878Z,2175.00
2023-05-15T06:56:55.223Z,2219.00
2023-05-15T06:57:53.764Z,2257.00
2023-05-15T06:58:53.717Z,2174.00
2023-05-15T06:59:56.854Z,2252.00
2023-05-15T07:00:55.553Z,2246.00
2023-05-15T07:01:53.793Z,2252.00
2023-05-15T07:02:53.677Z,2260.00
2023-05-15T07:03:53.495Z,2281.00
2023-05-15T07:04:53.478Z,2291.00
2023-05-15T07:05:53.730Z,2309.00
2023-05-15T07:06:56.727Z,2306.00
2023-05-15T07:07:53.324Z,2307.00
2023-05-15T07:08:53.639Z,2307.00
2023-05-15T07:09:53.218Z,2313.00
2023-05-15T07:10:53.233Z,2326.00
2023-05-15T07:11:53.155Z,2347.00
2023-05-15T07:12:53.094Z,2343.00
2023-05-15T07:13:53.060Z,2362.00
2023-05-15T07:14:53.002Z,2453.00
2023-05-15T07:15:53.237Z,2514.00
2023-05-15T07:16:52.933Z,2658.00
2023-05-15T07:17:52.951Z,2607.00
2023-05-15T07:18:52.910Z,2555.00
2023-05-15T07:19:52.796Z,2555.00
2023-05-15T07:20:53.241Z,2558.00
2023-05-15T07:21:52.704Z,2589.00
2023-05-15T07:22:56.621Z,2626.00
2023-05-15T07:23:52.609Z,2627.00
2023-05-15T07:24:52.601Z,2584.00
2023-05-15T07:25:53.030Z,2583.00
2023-05-15T07:26:58.868Z,2609.00
2023-05-15T07:27:52.779Z,2627.00
2023-05-15T07:28:52.748Z,2627.00
2023-05-15T07:29:52.738Z,2605.00
2023-05-15T07:30:52.672Z,2636.00
2023-05-15T07:31:52.996Z,2644.00
2023-05-15T07:32:59.755Z,2606.00
2023-05-15T07:33:53.282Z,2623.00
2023-05-15T07:34:53.153Z,2628.00
2023-05-15T07:36:53.151Z,2627.00
2023-05-15T07:38:07.922Z,2633.00
2023-05-15T07:38:52.130Z,2627.00
2023-05-15T07:39:52.094Z,2626.00
2023-05-15T07:40:51.996Z,2574.00
2023-05-15T07:41:52.259Z,2614.00
2023-05-15T07:42:52.286Z,2657.00
2023-05-15T07:43:53.111Z,2642.00
2023-05-15T07:44:51.803Z,2676.00
2023-05-15T07:45:51.823Z,2662.00
2023-05-15T07:46:51.719Z,2616.00
2023-05-15T07:47:51.770Z,2604.00
2023-05-15T07:48:51.599Z,2622.00
2023-05-15T07:49:51.634Z,2631.00
2023-05-15T07:50:51.587Z,2656.00
2023-05-15T07:51:51.577Z,2680.00
2023-05-15T07:52:51.766Z,2676.00
2023-05-15T07:53:51.608Z,2679.00
2023-05-15T07:54:51.586Z,2712.00
2023-05-15T07:55:51.510Z,2712.00
2023-05-15T07:56:52.370Z,2713.00
2023-05-15T07:58:07.379Z,2720.00
2023-05-15T07:58:51.493Z,2722.00
2023-05-15T07:59:51.399Z,2732.00
2023-05-15T08:00:51.361Z,2744.00
2023-05-15T08:01:51.292Z,2715.00
2023-05-15T08:02:51.846Z,2462.00
2023-05-15T08:03:51.333Z,2232.00
2023-05-15T08:04:51.171Z,1975.00
2023-05-15T08:05:58.629Z,1921.00
2023-05-15T08:06:51.258Z,1889.00
2023-05-15T08:07:51.273Z,1858.00
2023-05-15T08:08:50.965Z,1722.00
2023-05-15T08:09:51.267Z,1611.00
2023-05-15T08:10:51.183Z,1564.00
2023-05-15T08:11:50.841Z,1473.00
2023-05-15T08:12:51.605Z,1422.00
2023-05-15T08:13:50.772Z,1377.00
2023-05-15T08:14:50.722Z,1364.00
2023-05-15T08:15:53.911Z,1334.00
2023-05-15T08:16:50.669Z,1334.00
2023-05-15T08:17:50.777Z,1314.00
2023-05-15T08:18:50.706Z,1298.00
2023-05-15T08:19:50.573Z,1276.00
2023-05-15T08:20:50.542Z,1210.00
2023-05-15T08:21:50.519Z,1161.00
2023-05-15T08:22:50.485Z,1166.00
2023-05-15T08:23:50.651Z,1132.00
2023-05-15T08:24:50.419Z,1105.00
2023-05-15T08:25:50.400Z,1067.00
2023-05-15T08:26:51.249Z,1061.00
2023-05-15T08:27:50.765Z,1060.00
2023-05-15T08:28:50.289Z,1024.00
2023-05-15T08:29:50.406Z,1032.00
2023-05-15T08:30:50.257Z,1013.00
2023-05-15T08:31:50.270Z,1059.00
2023-05-15T08:32:50.279Z,1022.00
2023-05-15T08:33:50.152Z,997.00
2023-05-15T08:34:50.577Z,999.00
2023-05-15T08:35:50.138Z,986.00
2023-05-15T08:36:50.076Z,1012.00
2023-05-15T08:37:50.246Z,1010.00
2023-05-15T08:38:50.187Z,1027.00
2023-05-15T08:39:50.270Z,1012.00
2023-05-15T08:40:50.128Z,1003.00
2023-05-15T08:41:50.138Z,970.00
2023-05-15T08:42:50.262Z,871.00
2023-05-15T08:43:50.173Z,892.00
2023-05-15T08:44:50.672Z,930.00
2023-05-15T08:45:57.655Z,939.00
2023-05-15T08:46:50.309Z,940.00
2023-05-15T08:49:50.092Z,947.00
2023-05-15T08:50:57.467Z,975.00
2023-05-15T08:51:50.025Z,948.00
2023-05-15T08:52:50.266Z,985.00
2023-05-15T08:53:50.261Z,1041.00
2023-05-15T08:54:50.267Z,1147.00
2023-05-15T08:55:49.892Z,1289.00
2023-05-15T08:56:49.858Z,1369.00
2023-05-15T08:57:50.313Z,1360.00
2023-05-15T08:58:49.876Z,1362.00
2023-05-15T08:59:49.732Z,1381.00
2023-05-15T09:00:50.690Z,1394.00
2023-05-15T09:01:49.694Z,1415.00
2023-05-15T09:02:49.872Z,1433.00
2023-05-15T09:03:49.582Z,1456.00
2023-05-15T09:04:49.780Z,1478.00
2023-05-15T09:05:49.469Z,1504.00
2023-05-15T09:06:49.477Z,1547.00
2023-05-15T09:07:49.441Z,1546.00
2023-05-15T09:08:49.447Z,1576.00
2023-05-15T09:09:49.776Z,1587.00
2023-05-15T09:10:49.543Z,1579.00
2023-05-15T09:11:49.578Z,1607.00
2023-05-15T09:12:49.545Z,1614.00
2023-05-15T09:13:50.312Z,1635.00
2023-05-15T09:14:49.539Z,1642.00
2023-05-15T09:15:49.825Z,1660.00
2023-05-15T09:16:49.502Z,1691.00
2023-05-15T09:17:49.555Z,1726.00
2023-05-15T09:18:49.535Z,1728.00
2023-05-15T09:19:49.398Z,1748.00
2023-05-15T09:20:49.776Z,1751.00
2023-05-15T09:21:49.454Z,1768.00
2023-05-15T09:22:49.790Z,1808.00
2023-05-15T09:23:49.506Z,1780.00
2023-05-15T09:24:49.792Z,1784.00
2023-05-15T09:25:50.727Z,1793.00
2023-05-15T09:26:50.954Z,1809.00
2023-05-15T09:27:49.485Z,1823.00
2023-05-15T09:28:49.620Z,1855.00
2023-05-15T09:29:49.433Z,1874.00
2023-05-15T09:30:49.430Z,1859.00
2023-05-15T09:31:49.009Z,1977.00
2023-05-15T09:32:56.604Z,1956.00
2023-05-15T09:33:49.298Z,1962.00
2023-05-15T09:36:09.927Z,500.00
2023-05-15T09:37:15.160Z,500.00
2023-05-15T09:38:11.092Z,500.00
2023-05-15T09:39:07.736Z,500.00
2023-05-15T09:40:08.260Z,500.00
2023-05-15T09:41:07.687Z,500.00
2023-05-15T09:42:07.918Z,500.00
2023-05-15T09:43:18.467Z,500.00
2023-05-15T09:44:07.772Z,500.00
2023-05-15T09:46:25.794Z,500.00
2023-05-15T09:47:26.654Z,500.00
2023-05-15T09:48:26.829Z,500.00
2023-05-15T09:49:27.374Z,500.00
2023-05-15T09:50:26.370Z,500.00
2023-05-15T09:51:26.684Z,500.00
2023-05-15T09:52:26.291Z,500.00
2023-05-15T09:53:26.688Z,500.00
2023-05-15T09:54:26.195Z,500.00
2023-05-15T09:55:26.579Z,500.00
2023-05-15T09:56:26.198Z,502.00
2023-05-15T09:57:26.704Z,504.00
2023-05-15T09:58:26.201Z,500.00
2023-05-15T09:59:26.044Z,500.00
2023-05-15T10:00:26.255Z,500.00
2023-05-15T10:01:26.129Z,500.00
2023-05-15T10:02:26.169Z,501.00
2023-05-15T10:03:26.200Z,500.00
2023-05-15T10:04:26.159Z,500.00
2023-05-15T10:05:39.224Z,501.00
2023-05-15T10:06:26.134Z,501.00
2023-05-15T10:07:26.175Z,499.00
2023-05-15T10:08:26.195Z,481.00
2023-05-15T10:09:26.049Z,479.00
2023-05-15T10:10:26.132Z,481.00
2023-05-15T10:11:26.202Z,502.00
2023-05-15T10:12:25.950Z,506.00
2023-05-15T10:13:26.274Z,500.00
2023-05-15T10:14:25.893Z,502.00
2023-05-15T10:15:25.846Z,508.00
2023-05-15T10:16:25.859Z,501.00
2023-05-15T10:17:25.869Z,500.00
2023-05-15T10:18:26.240Z,500.00
2023-05-15T10:19:25.890Z,500.00
2023-05-15T10:20:25.893Z,503.00
2023-05-15T10:21:25.640Z,501.00
2023-05-15T10:22:25.607Z,509.00
2023-05-15T10:23:25.724Z,512.00
2023-05-15T10:24:25.731Z,495.00
2023-05-15T10:25:25.520Z,500.00
2023-05-15T10:26:28.699Z,523.00
2023-05-15T10:27:25.436Z,525.00
2023-05-15T10:28:25.433Z,533.00
2023-05-15T10:29:25.705Z,540.00
2023-05-15T10:30:25.641Z,542.00
2023-05-15T10:31:25.784Z,535.00
2023-05-15T10:32:25.309Z,465.00
2023-05-15T10:33:25.711Z,444.00
2023-05-15T10:34:26.217Z,469.00
2023-05-15T10:35:25.199Z,470.00
2023-05-15T10:36:25.228Z,522.00
2023-05-15T10:37:25.129Z,557.00
2023-05-15T10:38:25.101Z,579.00
2023-05-15T10:39:25.084Z,576.00
2023-05-15T10:40:25.258Z,575.00
2023-05-15T10:41:25.206Z,573.00
2023-05-15T10:42:25.007Z,581.00
2023-05-15T10:43:25.217Z,607.00
2023-05-15T10:44:24.984Z,609.00
2023-05-15T10:45:25.020Z,611.00
2023-05-15T10:46:25.060Z,609.00
2023-05-15T10:47:25.049Z,639.00
2023-05-15T10:48:25.218Z,609.00
2023-05-15T10:49:25.021Z,629.00
2023-05-15T10:50:25.257Z,646.00
2023-05-15T10:51:25.021Z,649.00
2023-05-15T10:52:25.018Z,650.00
2023-05-15T10:53:25.221Z,705.00
2023-05-15T10:54:24.980Z,802.00
2023-05-15T10:55:24.971Z,758.00
2023-05-15T10:56:25.259Z,858.00
2023-05-15T10:57:24.930Z,882.00
2023-05-15T10:58:24.938Z,791.00
2023-05-15T10:59:24.903Z,811.00
2023-05-15T11:00:25.154Z,786.00
2023-05-15T11:01:25.308Z,868.00
2023-05-15T11:02:24.976Z,859.00
2023-05-15T11:03:26.062Z,905.00
2023-05-15T11:04:24.976Z,907.00
2023-05-15T11:05:24.770Z,911.00
2023-05-15T11:06:24.756Z,866.00
2023-05-15T11:07:24.671Z,785.00
2023-05-15T11:08:24.741Z,841.00
2023-05-15T11:09:27.216Z,883.00
2023-05-15T11:10:24.729Z,887.00
2023-05-15T11:11:24.510Z,894.00
2023-05-15T11:12:24.528Z,909.00
2023-05-15T11:13:24.740Z,924.00
2023-05-15T11:14:24.980Z,959.00
2023-05-15T11:15:24.428Z,1043.00
2023-05-15T11:16:24.385Z,1057.00
2023-05-15T11:17:24.342Z,1044.00
2023-05-15T11:18:28.024Z,1067.00
2023-05-15T11:19:24.222Z,1069.00
2023-05-15T11:20:24.697Z,1070.00
2023-05-15T11:21:24.244Z,1089.00
2023-05-15T11:22:24.162Z,1136.00
2023-05-15T11:23:27.954Z,1302.00
2023-05-15T11:24:24.011Z,1078.00
2023-05-15T11:25:23.972Z,1120.00
2023-05-15T11:26:24.248Z,1208.00
2023-05-15T11:27:23.890Z,1339.00
2023-05-15T11:28:23.846Z,1550.00
2023-05-15T11:29:24.231Z,1619.00
2023-05-15T11:30:23.790Z,1671.00
2023-05-15T11:31:23.769Z,1720.00
2023-05-15T11:32:24.295Z,1746.00
2023-05-15T11:33:23.654Z,1766.00
2023-05-15T11:34:23.730Z,1787.00
2023-05-15T11:35:23.521Z,1864.00
2023-05-15T11:36:23.445Z,1868.00
2023-05-15T11:37:23.724Z,1890.00
2023-05-15T11:38:23.450Z,1923.00
2023-05-15T11:39:23.724Z,1936.00
2023-05-15T11:40:23.562Z,1958.00
2023-05-15T11:41:23.194Z,1961.00
2023-05-15T11:42:23.318Z,1986.00
2023-05-15T11:43:23.095Z,2012.00
2023-05-15T11:44:23.248Z,2030.00
2023-05-15T11:45:22.980Z,2040.00
2023-05-15T11:46:23.009Z,2048.00
2023-05-15T11:47:22.970Z,2047.00
2023-05-15T11:48:22.920Z,2074.00
2023-05-15T11:49:23.235Z,2099.00
2023-05-15T11:50:23.113Z,2125.00
2023-05-15T11:51:22.797Z,2137.00
2023-05-15T11:52:22.784Z,2159.00
2023-05-15T11:53:22.766Z,2199.00
2023-05-15T11:54:23.279Z,2194.00
2023-05-15T11:55:22.754Z,2186.00
2023-05-15T11:56:22.799Z,2202.00
2023-05-15T11:57:22.756Z,2218.00
2023-05-15T11:58:22.757Z,2219.00
2023-05-15T11:59:23.362Z,2231.00
2023-05-15T12:00:22.960Z,2287.00
2023-05-15T12:01:22.747Z,2293.00
2023-05-15T12:02:22.768Z,2278.00
2023-05-15T12:03:22.798Z,2275.00
2023-05-15T12:04:23.047Z,2291.00
2023-05-15T12:05:23.720Z,2311.00
2023-05-15T12:06:22.716Z,2313.00
2023-05-15T12:07:22.714Z,2296.00
2023-05-15T12:08:22.693Z,2308.00
2023-05-15T12:09:23.738Z,2318.00
2023-05-15T12:10:22.855Z,2323.00
2023-05-15T12:11:22.668Z,2349.00
2023-05-15T12:12:22.638Z,2333.00
2023-05-15T12:13:22.631Z,2354.00
2023-05-15T12:14:22.745Z,2391.00
2023-05-15T12:15:22.567Z,2388.00
2023-05-15T12:16:22.637Z,2425.00
2023-05-15T12:17:22.532Z,2419.00
2023-05-15T12:18:22.504Z,2427.00
2023-05-15T12:19:22.865Z,2452.00
2023-05-15T12:20:22.456Z,2439.00
2023-05-15T12:21:22.435Z,2437.00
2023-05-15T12:22:22.411Z,2417.00
2023-05-15T12:23:22.371Z,2453.00
2023-05-15T12:24:23.237Z,2455.00
2023-05-15T12:25:22.377Z,2428.00
2023-05-15T12:26:22.302Z,2421.00
2023-05-15T12:27:22.389Z,2435.00